createdAt,value
2022-10-28T00:00:48.006Z,85.15
2022-10-28T00:03:14.661Z,85.01
2022-10-28T00:05:41.447Z,84.75
2022-10-28T00:08:08.119Z,84.89
2022-10-28T00:10:34.829Z,85.27
2022-10-28T00:13:01.693Z,85.22
2022-10-28T00:15:28.495Z,85.14
2022-10-28T00:17:56.614Z,85.17
2022-10-28T00:20:23.244Z,84.89
2022-10-28T00:22:49.935Z,84.98
2022-10-28T00:25:16.587Z,85.03
2022-10-28T00:27:44.250Z,84.98
2022-10-28T00:30:11.839Z,84.88
2022-10-28T00:32:38.605Z,85.02
2022-10-28T00:35:07.812Z,85.14
2022-10-28T00:37:34.373Z,85.02
2022-10-28T00:40:00.988Z,84.97
2022-10-28T00:42:27.703Z,85.25
2022-10-28T00:44:57.999Z,85.10
2022-10-28T00:47:41.388Z,84.98
2022-10-28T00:50:26.151Z,84.88
2022-10-28T00:52:58.439Z,84.82
2022-10-28T00:55:26.170Z,85.06
2022-10-28T00:57:58.453Z,85.04
2022-10-28T01:00:26.032Z,85.24
2022-10-28T01:02:52.650Z,85.33
2022-10-28T01:05:23.146Z,85.21
2022-10-28T01:07:51.962Z,85.20
2022-10-28T01:10:22.256Z,85.28
2022-10-28T01:13:02.671Z,85.19
2022-10-28T01:15:37.955Z,85.00
2022-10-28T01:18:17.775Z,85.04
2022-10-28T01:21:24.426Z,85.34
2022-10-28T01:24:05.662Z,85.20
2022-10-28T01:27:03.442Z,85.48
2022-10-28T01:29:49.438Z,85.48
2022-10-28T01:32:27.858Z,85.29
2022-10-28T01:35:02.921Z,85.33
2022-10-28T01:37:35.938Z,85.52
2022-10-28T01:40:09.416Z,85.61
2022-10-28T01:42:42.773Z,85.51
2022-10-28T01:45:16.761Z,85.67
2022-10-28T01:47:50.699Z,85.59
2022-10-28T01:50:23.955Z,85.78
2022-10-28T01:52:55.053Z,85.54
2022-10-28T01:55:25.975Z,85.57
2022-10-28T01:57:55.010Z,85.60
2022-10-28T02:00:21.698Z,85.57
2022-10-28T02:02:51.126Z,85.48
2022-10-28T02:05:41.885Z,85.40
2022-10-28T02:08:30.240Z,85.55
2022-10-28T02:11:09.249Z,85.42
2022-10-28T02:13:46.800Z,85.68
2022-10-28T02:16:22.723Z,85.48
2022-10-28T02:19:00.353Z,85.61
2022-10-28T02:21:36.576Z,85.64
2022-10-28T02:24:13.257Z,85.52
2022-10-28T02:26:44.649Z,85.85
2022-10-28T02:29:18.045Z,85.73
2022-10-28T02:31:49.271Z,85.78
2022-10-28T02:34:21.743Z,85.61
2022-10-28T02:36:52.380Z,85.63
2022-10-28T02:39:24.859Z,85.58
2022-10-28T02:41:55.981Z,85.87
2022-10-28T02:44:26.658Z,85.83
2022-10-28T02:46:56.635Z,85.60
2022-10-28T02:49:26.914Z,85.80
2022-10-28T02:51:57.855Z,85.55
2022-10-28T02:54:29.528Z,85.63
2022-10-28T02:57:01.261Z,86.03
2022-10-28T02:59:29.043Z,86.07
2022-10-28T03:01:56.492Z,85.94
2022-10-28T03:04:24.792Z,85.99
2022-10-28T03:06:51.610Z,86.13
2022-10-28T03:09:18.344Z,85.88
2022-10-28T03:11:45.033Z,86.22
2022-10-28T03:14:14.568Z,86.24
2022-10-28T03:16:42.313Z,86.08
2022-10-28T03:21:37.127Z,86.34
2022-10-28T03:24:04.238Z,86.20
2022-10-28T03:26:30.884Z,86.26
2022-10-28T03:28:57.827Z,86.12
2022-10-28T03:31:24.556Z,85.96
2022-10-28T03:33:51.402Z,85.83
2022-10-28T03:36:18.007Z,86.23
2022-10-28T03:38:46.049Z,86.13
2022-10-28T03:41:13.059Z,85.86
2022-10-28T03:43:39.737Z,86.08
2022-10-28T03:46:06.461Z,86.13
2022-10-28T03:48:33.135Z,85.90
2022-10-28T03:51:00.085Z,86.11
2022-10-28T03:53:27.805Z,86.07
2022-10-28T03:56:01.293Z,86.00
2022-10-28T03:58:28.616Z,86.18
2022-10-28T04:00:55.817Z,86.05
2022-10-28T04:03:24.535Z,86.04
2022-10-28T04:05:51.781Z,85.92
2022-10-28T04:08:22.068Z,86.15
2022-10-28T04:10:49.742Z,85.86
2022-10-28T04:13:17.940Z,85.88
2022-10-28T04:15:44.719Z,86.18
2022-10-28T04:18:12.403Z,85.98
2022-10-28T04:20:39.562Z,85.96
2022-10-28T04:23:06.454Z,85.74
2022-10-28T04:25:34.271Z,85.80
2022-10-28T04:28:00.950Z,85.73
2022-10-28T04:30:29.068Z,86.05
2022-10-28T04:32:55.677Z,85.81
2022-10-28T04:35:23.928Z,85.72
2022-10-28T04:37:50.976Z,85.74
2022-10-28T04:40:17.857Z,85.75
2022-10-28T04:42:44.770Z,85.61
2022-10-28T04:45:11.856Z,85.57
2022-10-28T04:47:39.836Z,86.24
2022-10-28T04:50:07.551Z,86.40
2022-10-28T04:52:34.260Z,86.24
2022-10-28T04:55:01.470Z,86.04
2022-10-28T04:57:28.171Z,86.17
2022-10-28T04:59:55.191Z,86.12
2022-10-28T05:02:23.005Z,86.29
2022-10-28T05:04:51.215Z,86.07
2022-10-28T05:07:21.217Z,86.29
2022-10-28T05:09:50.441Z,86.43
2022-10-28T05:12:17.109Z,86.04
2022-10-28T05:14:43.761Z,86.24
2022-10-28T05:17:11.345Z,86.33
2022-10-28T05:19:38.207Z,86.14
2022-10-28T05:22:06.454Z,86.41
2022-10-28T05:24:33.280Z,86.25
2022-10-28T05:27:00.890Z,86.29
2022-10-28T05:29:32.298Z,86.09
2022-10-28T05:32:00.304Z,86.32
2022-10-28T05:34:27.049Z,86.15
2022-10-28T05:36:53.724Z,86.21
2022-10-28T05:39:22.635Z,86.26
2022-10-28T05:41:49.279Z,86.22
2022-10-28T05:44:15.991Z,86.54
2022-10-28T05:46:42.617Z,86.21
2022-10-28T05:49:09.380Z,86.31
2022-10-28T05:51:35.964Z,86.42
2022-10-28T05:54:02.611Z,86.51
2022-10-28T05:56:30.617Z,86.80
2022-10-28T05:58:57.222Z,86.24
2022-10-28T06:01:23.954Z,86.40
2022-10-28T06:03:50.724Z,86.64
2022-10-28T06:06:17.580Z,86.35
2022-10-28T06:08:44.338Z,86.67
2022-10-28T06:11:09.470Z,86.66
2022-10-28T06:13:37.703Z,86.45
2022-10-28T06:16:05.234Z,86.50
2022-10-28T06:18:32.548Z,86.50
2022-10-28T06:20:59.278Z,86.46
2022-10-28T06:23:27.549Z,86.57
2022-10-28T06:28:25.150Z,86.31
2022-10-28T06:30:53.264Z,86.38
2022-10-28T06:33:20.152Z,86.47
2022-10-28T06:35:46.853Z,86.68
2022-10-28T06:38:13.503Z,86.52
2022-10-28T06:40:40.150Z,86.72
2022-10-28T06:43:08.367Z,86.88
2022-10-28T06:45:35.066Z,86.69
2022-10-28T06:48:06.490Z,86.82
2022-10-28T06:50:35.610Z,86.76
2022-10-28T06:53:03.320Z,86.63
2022-10-28T06:55:30.400Z,86.52
2022-10-28T06:58:00.237Z,86.65
2022-10-28T07:00:27.642Z,86.57
2022-10-28T07:02:54.771Z,86.77
2022-10-28T07:05:24.376Z,86.73
2022-10-28T07:07:51.618Z,86.67
2022-10-28T07:10:18.698Z,86.85
2022-10-28T07:12:45.578Z,86.82
2022-10-28T07:15:12.671Z,86.78
2022-10-28T07:17:39.587Z,86.59
2022-10-28T07:20:07.468Z,86.36
2022-10-28T07:22:35.542Z,86.52
2022-10-28T07:25:02.354Z,86.27
2022-10-28T07:27:28.958Z,86.44
2022-10-28T07:29:55.650Z,86.31
2022-10-28T07:32:22.273Z,86.35
2022-10-28T07:34:49.113Z,86.46
2022-10-28T07:37:15.972Z,86.21
2022-10-28T07:39:44.052Z,86.09
2022-10-28T07:42:10.718Z,86.14
2022-10-28T07:44:37.456Z,86.20
2022-10-28T07:47:04.452Z,86.41
2022-10-28T07:49:31.307Z,86.49
2022-10-28T07:51:58.105Z,86.43
2022-10-28T07:54:25.113Z,86.27
2022-10-28T07:56:53.189Z,86.17
2022-10-28T07:59:25.818Z,86.22
2022-10-28T08:01:55.392Z,86.19
2022-10-28T08:04:22.371Z,86.07
2022-10-28T08:06:49.047Z,86.26
2022-10-28T08:09:16.804Z,86.16
2022-10-28T08:11:43.786Z,86.13
2022-10-28T08:14:11.965Z,86.14
2022-10-28T08:16:38.786Z,85.98
2022-10-28T08:19:07.842Z,85.95
2022-10-28T08:21:35.550Z,86.15
2022-10-28T08:24:02.311Z,86.08
2022-10-28T08:26:29.088Z,86.02
2022-10-28T08:28:56.627Z,85.96
2022-10-28T08:31:24.609Z,85.81
2022-10-28T08:33:51.534Z,85.53
2022-10-28T08:36:18.358Z,85.61
2022-10-28T08:38:46.219Z,85.58
2022-10-28T08:41:32.136Z,85.44
2022-10-28T08:44:46.731Z,85.21
2022-10-28T08:47:29.410Z,85.29
2022-10-28T08:50:01.013Z,85.19
2022-10-28T08:52:31.622Z,85.20
2022-10-28T08:55:02.783Z,85.19
2022-10-28T08:57:36.513Z,85.14
2022-10-28T09:00:06.662Z,85.20
2022-10-28T09:02:48.204Z,84.96
2022-10-28T09:05:21.722Z,84.93
2022-10-28T09:07:49.068Z,84.83
2022-10-28T09:10:17.878Z,84.57
2022-10-28T09:12:55.212Z,84.71
2022-10-28T09:15:34.097Z,84.40
2022-10-28T09:18:08.670Z,84.45
2022-10-28T09:20:48.045Z,84.42
2022-10-28T09:23:22.447Z,84.47
2022-10-28T09:26:00.472Z,84.41
2022-10-28T09:28:40.101Z,84.33
2022-10-28T09:31:15.109Z,84.38
2022-10-28T09:33:54.250Z,84.34
2022-10-28T09:36:25.207Z,84.28
2022-10-28T09:38:55.252Z,84.37
2022-10-28T09:41:25.878Z,84.20
2022-10-28T09:43:59.388Z,83.97
2022-10-28T09:46:33.226Z,83.55
2022-10-28T09:49:11.227Z,83.44
2022-10-28T09:51:46.320Z,83.38
2022-10-28T09:54:14.137Z,83.36
2022-10-28T09:56:41.600Z,83.25
2022-10-28T09:59:13.511Z,83.11
2022-10-28T10:01:44.074Z,83.00
2022-10-28T10:04:19.245Z,82.83
2022-10-28T10:06:49.651Z,82.66
2022-10-28T10:09:21.700Z,82.46
2022-10-28T10:11:50.506Z,82.26
2022-10-28T10:14:21.500Z,82.23
2022-10-28T10:16:54.019Z,82.10
2022-10-28T10:19:22.354Z,82.21
2022-10-28T10:21:50.440Z,82.04
2022-10-28T10:24:31.148Z,82.00
2022-10-28T10:27:00.319Z,81.96
2022-10-28T10:29:29.108Z,81.76
2022-10-28T10:32:16.621Z,81.72
2022-10-28T10:34:50.625Z,81.73
2022-10-28T10:37:19.227Z,81.79
2022-10-28T10:39:46.182Z,81.69
2022-10-28T10:42:18.115Z,81.77
2022-10-28T10:44:45.523Z,81.33
2022-10-28T10:47:21.133Z,81.49
2022-10-28T10:49:49.868Z,81.31
2022-10-28T10:52:20.260Z,81.41
2022-10-28T10:55:02.839Z,81.04
2022-10-28T10:57:31.142Z,80.83
2022-10-28T10:59:58.244Z,80.84
2022-10-28T11:02:28.314Z,80.67
2022-10-28T11:04:59.708Z,80.35
2022-10-28T11:07:28.368Z,80.00
2022-10-28T11:09:55.951Z,79.80
2022-10-28T11:12:29.401Z,79.68
2022-10-28T11:14:59.112Z,79.43
2022-10-28T11:17:27.879Z,79.05
2022-10-28T11:19:59.458Z,78.91
2022-10-28T11:22:39.305Z,78.65
2022-10-28T11:25:26.959Z,77.99
2022-10-28T11:28:05.289Z,77.91
2022-10-28T11:30:45.508Z,77.92
2022-10-28T11:33:30.096Z,77.86
2022-10-28T11:36:07.167Z,77.45
2022-10-28T11:39:01.887Z,77.49
2022-10-28T11:41:39.271Z,77.49
2022-10-28T11:44:18.554Z,77.18
2022-10-28T11:47:00.966Z,77.07
2022-10-28T11:50:20.374Z,76.88
2022-10-28T11:53:21.958Z,76.82
2022-10-28T11:55:56.611Z,76.91
2022-10-28T11:58:32.481Z,76.72
2022-10-28T12:01:18.407Z,76.53
2022-10-28T12:04:05.383Z,76.43
2022-10-28T12:06:51.886Z,76.28
2022-10-28T12:09:27.939Z,76.19
2022-10-28T12:12:08.468Z,75.94
2022-10-28T12:14:48.412Z,75.74
2022-10-28T12:17:20.760Z,75.72
2022-10-28T12:19:53.790Z,75.40
2022-10-28T12:22:26.039Z,75.69
2022-10-28T12:24:56.053Z,75.54
2022-10-28T12:27:27.648Z,75.52
2022-10-28T12:30:00.082Z,75.50
2022-10-28T12:32:30.246Z,75.06
2022-10-28T12:35:05.398Z,74.89
2022-10-28T12:37:37.001Z,74.61
2022-10-28T12:40:13.079Z,74.31
2022-10-28T12:42:47.573Z,73.96
2022-10-28T12:45:17.301Z,73.51
2022-10-28T12:47:49.998Z,72.94
2022-10-28T12:50:25.626Z,72.84
2022-10-28T12:52:58.978Z,72.74
2022-10-28T12:55:35.419Z,72.54
2022-10-28T12:58:10.703Z,72.67
2022-10-28T13:00:43.560Z,72.39
2022-10-28T13:03:14.421Z,72.49
2022-10-28T13:05:45.115Z,72.25
2022-10-28T13:08:43.843Z,71.63
2022-10-28T13:11:53.860Z,71.35
2022-10-28T13:14:56.312Z,71.17
2022-10-28T13:17:35.571Z,71.15
2022-10-28T13:20:17.486Z,70.93
2022-10-28T13:23:04.421Z,70.46
2022-10-28T13:25:56.746Z,70.20
2022-10-28T13:28:29.710Z,70.28
2022-10-28T13:31:02.062Z,70.21
2022-10-28T13:33:30.491Z,70.44
2022-10-28T13:36:11.254Z,70.38
2022-10-28T13:38:40.363Z,70.68
2022-10-28T13:41:29.005Z,70.36
2022-10-28T13:44:37.601Z,70.17
2022-10-28T13:47:29.224Z,70.37
2022-10-28T13:50:33.414Z,70.26
2022-10-28T13:53:43.302Z,70.12
2022-10-28T13:56:45.891Z,70.32
2022-10-28T13:59:21.984Z,70.39
2022-10-28T14:02:02.226Z,70.48
2022-10-28T14:04:44.018Z,70.56
2022-10-28T14:07:21.636Z,70.60
2022-10-28T14:09:52.371Z,70.56
2022-10-28T14:12:24.654Z,70.67
2022-10-28T14:15:05.161Z,70.71
2022-10-28T14:17:37.858Z,70.66
2022-10-28T14:20:22.156Z,70.70
2022-10-28T14:22:49.575Z,70.87
2022-10-28T14:25:54.587Z,70.99
2022-10-28T14:28:52.169Z,71.04
2022-10-28T14:31:21.043Z,71.16
2022-10-28T14:34:27.348Z,71.08
2022-10-28T14:37:11.828Z,71.05
2022-10-28T14:39:48.475Z,71.05
2022-10-28T14:42:32.732Z,71.04
2022-10-28T14:45:18.211Z,70.96
2022-10-28T14:48:07.793Z,71.01
2022-10-28T14:50:39.835Z,71.27
2022-10-28T14:53:14.147Z,71.52
2022-10-28T14:55:46.339Z,71.28
2022-10-28T14:58:21.097Z,71.44
2022-10-28T15:00:56.559Z,71.54
2022-10-28T15:03:23.866Z,71.57
2022-10-28T15:05:50.467Z,71.61
2022-10-28T15:08:21.902Z,71.55
2022-10-28T15:10:49.855Z,71.68
2022-10-28T15:13:19.030Z,71.80
2022-10-28T15:15:52.422Z,71.71
2022-10-28T15:18:22.787Z,71.63
2022-10-28T15:20:50.161Z,71.68
2022-10-28T15:23:21.994Z,71.74
2022-10-28T15:26:06.697Z,71.70
2022-10-28T15:28:33.694Z,71.79
2022-10-28T15:31:00.324Z,71.82
2022-10-28T15:33:30.365Z,71.96
2022-10-28T15:36:08.421Z,71.90
2022-10-28T15:38:40.206Z,72.01
2022-10-28T15:41:39.468Z,71.92
2022-10-28T15:44:06.395Z,72.20
2022-10-28T15:46:33.949Z,72.24
2022-10-28T15:49:02.270Z,72.34
2022-10-28T15:51:31.874Z,72.44
2022-10-28T15:54:11.157Z,72.29
2022-10-28T15:56:53.861Z,72.33
2022-10-28T15:59:22.427Z,72.70
2022-10-28T16:01:49.353Z,72.70
2022-10-28T16:04:46.133Z,72.37
2022-10-28T16:07:13.062Z,72.71
2022-10-28T16:09:46.820Z,72.70
2022-10-28T16:12:16.393Z,72.75
2022-10-28T16:14:44.716Z,72.90
2022-10-28T16:17:17.896Z,73.05
2022-10-28T16:19:50.406Z,73.08
2022-10-28T16:22:18.404Z,73.23
2022-10-28T16:24:46.612Z,73.20
2022-10-28T16:27:16.905Z,73.29
2022-10-28T16:29:46.669Z,73.29
2022-10-28T16:32:15.066Z,73.27
2022-10-28T16:34:42.132Z,73.51
2022-10-28T16:37:24.915Z,73.63
2022-10-28T16:39:59.495Z,73.44
2022-10-28T16:42:27.840Z,73.73
2022-10-28T16:44:59.538Z,73.86
2022-10-28T16:47:29.579Z,73.97
2022-10-28T16:49:58.287Z,73.99
2022-10-28T16:52:29.011Z,74.13
2022-10-28T16:55:02.941Z,74.34
2022-10-28T16:57:29.724Z,74.48
2022-10-28T16:59:56.509Z,74.49
2022-10-28T17:02:28.270Z,74.75
2022-10-28T17:04:58.077Z,74.84
2022-10-28T17:07:24.958Z,75.07
2022-10-28T17:09:54.598Z,75.06
2022-10-28T17:12:31.928Z,75.34
2022-10-28T17:14:58.654Z,75.52
2022-10-28T17:17:25.458Z,75.61
2022-10-28T17:19:52.133Z,75.68
2022-10-28T17:22:18.874Z,75.81
2022-10-28T17:24:46.109Z,76.10
2022-10-28T17:27:13.906Z,76.27
2022-10-28T17:29:41.899Z,76.43
2022-10-28T17:32:08.811Z,76.57
2022-10-28T17:34:35.924Z,76.69
2022-10-28T17:37:02.761Z,76.78
2022-10-28T17:39:29.559Z,76.96
2022-10-28T17:41:56.442Z,77.01
2022-10-28T17:44:24.006Z,77.12
2022-10-28T17:46:52.277Z,77.21
2022-10-28T17:49:19.443Z,77.25
2022-10-28T17:51:46.558Z,77.51
2022-10-28T17:54:13.382Z,77.66
2022-10-28T17:56:42.515Z,77.78
2022-10-28T17:59:09.616Z,77.86
2022-10-28T18:01:37.336Z,78.03
2022-10-28T18:04:06.433Z,78.17
2022-10-28T18:06:34.167Z,78.19
2022-10-28T18:09:00.993Z,78.20
2022-10-28T18:11:30.176Z,78.34
2022-10-28T18:13:57.157Z,78.23
2022-10-28T18:16:27.876Z,78.67
2022-10-28T18:18:55.493Z,78.66
2022-10-28T18:21:24.664Z,78.68
2022-10-28T18:23:52.754Z,78.80
2022-10-28T18:26:30.639Z,78.90
2022-10-28T18:28:57.817Z,78.99
2022-10-28T18:31:27.100Z,79.15
2022-10-28T18:33:53.737Z,79.26
2022-10-28T18:36:23.623Z,79.21
2022-10-28T18:38:51.081Z,79.22
2022-10-28T18:41:19.140Z,79.29
2022-10-28T18:43:46.142Z,79.54
2022-10-28T18:46:13.561Z,79.36
2022-10-28T18:48:40.714Z,79.57
2022-10-28T18:51:10.400Z,79.65
2022-10-28T18:53:40.119Z,79.59
2022-10-28T18:56:08.627Z,79.67
2022-10-28T18:58:35.874Z,79.88
2022-10-28T19:01:08.128Z,79.95
2022-10-28T19:03:35.679Z,79.97
2022-10-28T19:06:03.212Z,79.90
2022-10-28T19:08:30.061Z,79.92
2022-10-28T19:10:58.988Z,79.94
2022-10-28T19:13:26.034Z,79.86
2022-10-28T19:15:53.189Z,79.81
2022-10-28T19:18:20.225Z,80.02
2022-10-28T19:20:46.892Z,79.89
2022-10-28T19:23:13.675Z,80.05
2022-10-28T19:25:40.454Z,80.18
2022-10-28T19:28:11.070Z,80.29
2022-10-28T19:30:37.717Z,80.37
2022-10-28T19:33:04.437Z,80.45
2022-10-28T19:35:33.678Z,80.58
2022-10-28T19:38:00.172Z,80.69
2022-10-28T19:40:26.821Z,80.53
2022-10-28T19:42:53.948Z,80.49
2022-10-28T19:45:22.298Z,80.52
2022-10-28T19:47:49.674Z,80.76
2022-10-28T19:50:16.709Z,80.62
2022-10-28T19:52:43.761Z,80.48
2022-10-28T19:55:14.810Z,80.86
2022-10-28T19:57:41.843Z,80.93
2022-10-28T20:00:10.036Z,81.06
2022-10-28T20:02:38.680Z,81.03
2022-10-28T20:05:06.522Z,80.90
2022-10-28T20:07:33.201Z,81.06
2022-10-28T20:12:27.322Z,81.15
2022-10-28T20:14:54.712Z,81.13
2022-10-28T20:17:21.513Z,81.19
2022-10-28T20:19:49.797Z,81.55
2022-10-28T20:22:17.706Z,81.49
2022-10-28T20:24:44.362Z,81.41
2022-10-28T20:27:11.202Z,81.58
2022-10-28T20:29:37.934Z,81.71
2022-10-28T20:32:04.717Z,81.69
2022-10-28T20:34:32.845Z,81.84
2022-10-28T20:37:00.851Z,81.93
2022-10-28T20:39:27.628Z,81.86
2022-10-28T20:41:56.630Z,81.87
2022-10-28T20:44:23.506Z,81.79
2022-10-28T20:46:50.431Z,81.79
2022-10-28T20:49:17.077Z,81.83
2022-10-28T20:51:44.709Z,82.06
2022-10-28T20:54:15.162Z,81.95
2022-10-28T20:56:43.363Z,81.91
2022-10-28T20:59:10.587Z,81.92
2022-10-28T21:01:42.200Z,82.17
2022-10-28T21:04:10.873Z,82.28
2022-10-28T21:06:38.488Z,82.33
2022-10-28T21:09:05.654Z,82.32
2022-10-28T21:11:34.056Z,82.29
2022-10-28T21:14:02.008Z,82.47
2022-10-28T21:16:32.668Z,82.28
2022-10-28T21:18:59.641Z,82.47
2022-10-28T21:21:27.317Z,82.33
2022-10-28T21:23:54.221Z,82.53
2022-10-28T21:26:21.048Z,82.60
2022-10-28T21:28:50.735Z,82.59
2022-10-28T21:31:18.626Z,82.56
2022-10-28T21:33:47.013Z,82.49
2022-10-28T21:36:23.414Z,82.51
2022-10-28T21:38:57.125Z,82.40
2022-10-28T21:41:24.907Z,82.49
2022-10-28T21:43:54.386Z,82.53
2022-10-28T21:46:22.303Z,82.57
2022-10-28T21:48:49.469Z,82.65
2022-10-28T21:51:17.648Z,82.52
2022-10-28T21:53:45.776Z,82.52
2022-10-28T21:56:18.296Z,82.44
2022-10-28T21:58:46.584Z,82.54
2022-10-28T22:01:17.990Z,82.65
2022-10-28T22:03:44.634Z,82.53
2022-10-28T22:06:11.379Z,82.42
2022-10-28T22:08:38.216Z,82.49
2022-10-28T22:11:06.795Z,82.70
2022-10-28T22:13:34.471Z,82.83
2022-10-28T22:16:03.770Z,82.75
2022-10-28T22:18:33.513Z,82.79
2022-10-28T22:21:04.614Z,82.89
2022-10-28T22:23:32.061Z,82.74
2022-10-28T22:26:00.900Z,82.75
2022-10-28T22:28:27.832Z,82.99
2022-10-28T22:31:01.186Z,83.23
2022-10-28T22:33:28.009Z,83.13
2022-10-28T22:35:59.894Z,83.21
2022-10-28T22:38:27.390Z,83.11
2022-10-28T22:41:05.578Z,83.25
2022-10-28T22:43:32.348Z,83.28
2022-10-28T22:45:59.668Z,83.40
2022-10-28T22:48:28.106Z,83.33
2022-10-28T22:50:54.916Z,83.28
2022-10-28T22:53:23.210Z,83.71
2022-10-28T22:55:52.580Z,83.69
2022-10-28T22:58:19.544Z,83.61
2022-10-28T23:00:46.869Z,83.61
2022-10-28T23:03:13.996Z,83.50
2022-10-28T23:05:41.185Z,83.60
2022-10-28T23:08:08.657Z,83.41
2022-10-28T23:10:36.647Z,83.79
2022-10-28T23:13:03.703Z,83.98
2022-10-28T23:15:30.520Z,83.76
2022-10-28T23:17:57.747Z,83.86
2022-10-28T23:20:25.396Z,83.86
2022-10-28T23:22:55.276Z,83.66
2022-10-28T23:25:21.951Z,83.80
2022-10-28T23:27:52.690Z,83.91
2022-10-28T23:30:19.678Z,83.70
2022-10-28T23:32:46.337Z,83.96
2022-10-28T23:35:13.071Z,83.70
2022-10-28T23:37:39.793Z,83.70
2022-10-28T23:40:07.162Z,83.61
2022-10-28T23:42:33.838Z,83.69
2022-10-28T23:45:02.288Z,83.68
2022-10-28T23:47:29.137Z,83.81
2022-10-28T23:49:55.860Z,83.71
2022-10-28T23:52:22.866Z,83.66
2022-10-28T23:54:49.510Z,83.68
2022-10-28T23:57:16.391Z,83.77
2022-10-28T23:59:43.005Z,83.68
